Main page
METAR-TAF:

METAR-TAF

Airports :

Pittsfield Penstone Municipal Airport

Pittsfield, Illinois, United States

latitude: 39-38-20N, longitude: 090-46-42W, elevation: 708 ft

Current weather observation

The report was made 29 minutes ago, at 06:55 UTC
Wind 3 mph from the West/Southwest
Temperature 41°F
Humidity 70%
Pressure 30.19 in. Hg
Visibility: 10 miles
Clear sky

METAR: KPPQ 220655Z AUTO 24003KT 10SM CLR 05/00 A3019 RMK AO2 T00500003

Time: 02:24 (07:24 UTC)


TAF: missing

Weather observations and forecasts of more than 4000 airports (METAR and TAF reports).

The available stations are represented by yellow and red dots on the map.

Hover mouse over dot to see the name of the station.

Then click to see weather observations and forecasts.

To change the map : click on the green buttons with a black cross to zoom in, on the green button with a dash to zoom out, or on the green arrows for adjacent maps.


METAR-TAF: